Un Pendik — TCOD2 — position and weather

sailwx.info

Track history (hours):
 
Tides and Currents Weather Stations Pressure Air Temp Water Temp Dewpoint Dewpoint Depression Visibility Wind Speed Wind Dir Waves Ship Positions

Un Pendik

Last reported at 2016-May-03 21:29 UTC. Time now 2016-May-03 21:55 UTC.
Position N 40°51' E 029°16'.

Length 193 m; draft 6.7 m.

Type: Ship (hazmat cat A). MMSI: 271000792.

Date/timePositionNaut miles runAvg speedWind from/ knotsBaromVisibWave heightAir tempDewpointWater temp
2016-May-03 21:29N 40°51' E 029°16'0 0.0
2016-May-03 20:10N 40°51' E 029°16'0 0.0
2016-May-03 19:28N 40°51' E 029°16'26611.6
2016-May-02 20:28N 38°07' E 024°45'1819.4
2016-May-02 19:34N 37°51' E 024°36'2718.9
2016-May-02 18:09N 37°28' E 024°20'1219.4
2016-May-02 17:33N 37°19' E 024°11'68816.0
2016-Apr-30 22:31N 45°13' E 013°06'37 6.9
2016-Apr-30 17:07N 45°39' E 013°45'31 3.0
2016-Apr-30 06:34N 45°16' E 013°15'2019.6
2016-Apr-30 05:31N 44°56' E 013°25'2319.3
2016-Apr-30 04:20N 44°37' E 013°42'1519.7
2016-Apr-30 03:33N 44°24' E 013°54'47419.5
2016-Apr-29 03:16N 38°08' E 020°18'1420.1
2016-Apr-29 02:33N 37°56' E 020°27'16017.7
2016-Apr-28 17:32N 36°31' E 023°18'1919.8
2016-Apr-28 16:33N 36°48' E 023°31'2019.7
2016-Apr-28 15:32N 37°05' E 023°44'2020.0
2016-Apr-28 14:32N 37°22' E 023°58'2820.1
2016-Apr-28 13:09N 37°45' E 024°18'1220.4
2016-Apr-28 12:33N 37°53' E 024°29'26317.3
2016-Apr-27 21:20N 40°44' E 028°46'1619.9
2016-Apr-27 20:33N 40°48' E 029°06'8 8.3
2016-Apr-27 19:33N 40°51' E 029°16'0 0.0
2016-Apr-27 18:33N 40°51' E 029°16'0 0.0
2016-Apr-27 17:32N 40°51' E 029°16'0 0.0
2016-Apr-27 16:32N 40°51' E 029°16'0 0.0
2016-Apr-27 15:31N 40°51' E 029°16'0 0.0
2016-Apr-27 14:31N 40°51' E 029°16'0 0.0
2016-Apr-27 13:18N 40°51' E 029°16'0 0.0
2016-Apr-27 12:33N 40°51' E 029°16'0 0.0
2016-Apr-27 11:31N 40°51' E 029°16'0 0.0
2016-Apr-27 10:30N 40°51' E 029°16'0 0.0
2016-Apr-27 09:30N 40°51' E 029°16'0 0.0
2016-Apr-27 08:30N 40°51' E 029°16'0 0.0
2016-Apr-27 07:31N 40°51' E 029°16'0 0.0
2016-Apr-27 06:31N 40°51' E 029°16'0 0.0
2016-Apr-27 05:24N 40°51' E 029°16'0 0.0
2016-Apr-27 04:30N 40°51' E 029°16'0 0.0
2016-Apr-27 03:23N 40°51' E 029°16'0 0.0
2016-Apr-27 02:23N 40°51' E 029°16'0 0.0
2016-Apr-27 01:28N 40°51' E 029°16'0 0.0
2016-Apr-27 00:16N 40°51' E 029°16'0 0.0
2016-Apr-26 23:34N 40°51' E 029°16'0 0.0
2016-Apr-26 22:33N 40°51' E 029°16'0 0.0
2016-Apr-26 21:33N 40°51' E 029°16'0 0.0
2016-Apr-26 20:26N 40°51' E 029°16'0 0.0
2016-Apr-26 19:26N 40°51' E 029°16'0 0.0
2016-Apr-26 18:31N 40°51' E 029°16'0 0.0
2016-Apr-26 17:31N 40°51' E 029°16'0 0.0
2016-Apr-26 16:23N 40°51' E 029°16'0 0.0
2016-Apr-26 15:30N 40°51' E 029°16'0 0.0
2016-Apr-26 14:30N 40°51' E 029°16'0 0.0
2016-Apr-26 13:33N 40°51' E 029°16'1111.0
2016-Apr-26 12:33N 40°46' E 029°03'26416.5
2016-Apr-25 20:33N 37°59' E 024°40'1919.3
2016-Apr-25 19:34N 37°41' E 024°31'1919.2
2016-Apr-25 18:33N 37°25' E 024°17'2019.4
2016-Apr-25 17:30N 37°09' E 024°01'1919.5
2016-Apr-25 16:33N 36°55' E 023°47'2019.4
2016-Apr-25 15:30N 36°39' E 023°30'17816.2
2016-Apr-25 04:33N 38°09' E 020°17'53118.8
2016-Apr-24 00:22N 45°12' E 013°07'  
Track history (hours):
 
Tides and Currents Weather Stations Pressure Air Temp Water Temp Dewpoint Dewpoint Depression Visibility Wind Speed Wind Dir Waves Ship Positions

Un Pendik

Last reported at 2016-May-03 21:29 UTC. Time now 2016-May-03 21:55 UTC.
Position N 40°51' E 029°16'.

Length 193 m; draft 6.7 m.

Type: Ship (hazmat cat A). MMSI: 271000792.

Date/timePositionNaut miles runAvg speedWind from/ knotsBaromVisibWave heightAir tempDewpointWater temp
2016-May-03 21:29N 40°51' E 029°16'0 0.0
2016-May-03 20:10N 40°51' E 029°16'0 0.0
2016-May-03 19:28N 40°51' E 029°16'26611.6
2016-May-02 20:28N 38°07' E 024°45'1819.4
2016-May-02 19:34N 37°51' E 024°36'2718.9
2016-May-02 18:09N 37°28' E 024°20'1219.4
2016-May-02 17:33N 37°19' E 024°11'68816.0
2016-Apr-30 22:31N 45°13' E 013°06'37 6.9
2016-Apr-30 17:07N 45°39' E 013°45'31 3.0
2016-Apr-30 06:34N 45°16' E 013°15'2019.6
2016-Apr-30 05:31N 44°56' E 013°25'2319.3
2016-Apr-30 04:20N 44°37' E 013°42'1519.7
2016-Apr-30 03:33N 44°24' E 013°54'47419.5
2016-Apr-29 03:16N 38°08' E 020°18'1420.1
2016-Apr-29 02:33N 37°56' E 020°27'16017.7
2016-Apr-28 17:32N 36°31' E 023°18'1919.8
2016-Apr-28 16:33N 36°48' E 023°31'2019.7
2016-Apr-28 15:32N 37°05' E 023°44'2020.0
2016-Apr-28 14:32N 37°22' E 023°58'2820.1
2016-Apr-28 13:09N 37°45' E 024°18'1220.4
2016-Apr-28 12:33N 37°53' E 024°29'26317.3
2016-Apr-27 21:20N 40°44' E 028°46'1619.9
2016-Apr-27 20:33N 40°48' E 029°06'8 8.3
2016-Apr-27 19:33N 40°51' E 029°16'0 0.0
2016-Apr-27 18:33N 40°51' E 029°16'0 0.0
2016-Apr-27 17:32N 40°51' E 029°16'0 0.0
2016-Apr-27 16:32N 40°51' E 029°16'0 0.0
2016-Apr-27 15:31N 40°51' E 029°16'0 0.0
2016-Apr-27 14:31N 40°51' E 029°16'0 0.0
2016-Apr-27 13:18N 40°51' E 029°16'0 0.0
2016-Apr-27 12:33N 40°51' E 029°16'0 0.0
2016-Apr-27 11:31N 40°51' E 029°16'0 0.0
2016-Apr-27 10:30N 40°51' E 029°16'0 0.0
2016-Apr-27 09:30N 40°51' E 029°16'0 0.0
2016-Apr-27 08:30N 40°51' E 029°16'0 0.0
2016-Apr-27 07:31N 40°51' E 029°16'0 0.0
2016-Apr-27 06:31N 40°51' E 029°16'0 0.0
2016-Apr-27 05:24N 40°51' E 029°16'0 0.0
2016-Apr-27 04:30N 40°51' E 029°16'0 0.0
2016-Apr-27 03:23N 40°51' E 029°16'0 0.0
2016-Apr-27 02:23N 40°51' E 029°16'0 0.0
2016-Apr-27 01:28N 40°51' E 029°16'0 0.0
2016-Apr-27 00:16N 40°51' E 029°16'0 0.0
2016-Apr-26 23:34N 40°51' E 029°16'0 0.0
2016-Apr-26 22:33N 40°51' E 029°16'0 0.0
2016-Apr-26 21:33N 40°51' E 029°16'0 0.0
2016-Apr-26 20:26N 40°51' E 029°16'0 0.0
2016-Apr-26 19:26N 40°51' E 029°16'0 0.0
2016-Apr-26 18:31N 40°51' E 029°16'0 0.0
2016-Apr-26 17:31N 40°51' E 029°16'0 0.0
2016-Apr-26 16:23N 40°51' E 029°16'0 0.0
2016-Apr-26 15:30N 40°51' E 029°16'0 0.0
2016-Apr-26 14:30N 40°51' E 029°16'0 0.0
2016-Apr-26 13:33N 40°51' E 029°16'1111.0
2016-Apr-26 12:33N 40°46' E 029°03'26416.5
2016-Apr-25 20:33N 37°59' E 024°40'1919.3
2016-Apr-25 19:34N 37°41' E 024°31'1919.2
2016-Apr-25 18:33N 37°25' E 024°17'2019.4
2016-Apr-25 17:30N 37°09' E 024°01'1919.5
2016-Apr-25 16:33N 36°55' E 023°47'2019.4
2016-Apr-25 15:30N 36°39' E 023°30'17816.2
2016-Apr-25 04:33N 38°09' E 020°17'53118.8
2016-Apr-24 00:22N 45°12' E 013°07'  

Dump ship's entire track history